MOC weather

Monteliban Airport
Codazzi, César Department, Colombia

Public forecast

Using degrees Celsius for public forecast. Weather courtesy of forecast.io.

METAR (pilot weather report)

Report is more than 2 hours old.

Closest report is Alfonso López Pumarejo Airport, 32.9 nm (61.0 km) N. Retrieved 2019/04/19 04:00 UTC (5 hours ago):

SKVP 190400Z 06012KT 9999 FEW020 SCT100 28/21 A2992

TAF (pilot weather forecast)

Closest forecast is La Chinita International Airport, 98.2 nm (181.8 km) ENE. Retrieved 2019/04/19 06:13 UTC (2 hours ago):

TAF SVMC 190400Z 1906/2006 06005KT 9000 DZ FEW016 TX30/1912Z TN26/1906Z TEMPO 1906/1910 03005KT 9000 DZ BKN016 SCT100